^^

Nearby METAR Reports

METAR (Meteorological Aerodrome Report) are Airport generated local weather condition reports for use, predominantly by pilots, these reports are also used as part of compliment of data sets required for Chatteris Weathers prediction software - WxSim.

EGUN - Mildenhall Raf, United Kingdom
Distance from station: ESE 19mi, 31km
Updated: 18/07/2019 06:03
NOT Current
Overcast
Overcast
 Wind from SSW
Wind: SSW 7 mph , 11 km/h
Temperature: 16°C
Dew Point: 15°C
Humidity: 94%
Barometer: 1008.1 hPa
Clouds: Overcast
Visibility: 6 miles , 10 km
Cloud details: Overcast 3048 m
2019/07/18 05:03 EGUN 180503Z 20006KT 9999 OVC100 16/15 A2977 RMK SLPNO WND DATA ESTMD ALSTG ESTMD 10184 20158 RVRNO $
EGSC - Cambridge, United Kingdom
Distance from station: SSE 20mi, 32km
Updated: 18/07/2019 09:20
Mostly cloudy
Mostly cloudy
 Wind from SW
Wind: SW 8 mph , 13 km/h
Temperature: 17°C
Dew Point: 16°C
Humidity: 94%
Barometer: 1008 hPa
Clouds: Mostly cloudy
Visibility: 4 miles , 7 km
Cloud details: Mostly cloudy 152 m
2019/07/18 08:20 EGSC 180820Z 23007KT 190V250 7000 BKN005 17/16 Q1008
 
EGUL - Lakenheath Raf, United Kingdom
Distance from station: E 22mi, 36km
Updated: 18/07/2019 08:37
Mist, Overcast
Mist, Overcast
 Wind from SW
Wind: SW 10 mph , 17 km/h
Temperature: 16°C
Dew Point: 16°C
Humidity: 100%
Barometer: 1008.1 hPa
Summary: Mist
Clouds: Overcast
Visibility: 5 miles , 8 km
Cloud details: Overcast 213 m
2019/07/18 07:37 EGUL 180737Z AUTO 22009KT 8000 BR OVC007 16/16 A2977 RMK AO2 DZB03E13RAB13E32DZB32E37 CIG 006V008 SLP084 $
EGXT - Wittering Raf, United Kingdom
Distance from station: WNW 24mi, 38km
Updated: 18/07/2019 09:20
Nearby showers, Mostly cloudy
Nearby showers, Mostly cloudy
 Wind from WSW
Wind: WSW 10 mph , 17 km/h
Temperature: 17°C
Dew Point: 15°C
Humidity: 88%
Barometer: 1007 hPa
Summary: Nearby Showers
Clouds: Mostly cloudy
Visibility: 3 miles , 5 km
Cloud details: Partly cloudy 244 m
Mostly cloudy 701 m
Mostly cloudy 1219 m
2019/07/18 08:20 EGXT 180820Z 25009KT 5000 VCSH SCT008 BKN023 BKN040 17/15 Q1007 RMK GRN
 
EGYH - Holbeach (aut), United Kingdom
Distance from station: N 27mi, 44km
Updated: 18/07/2019 08:50
Mostly cloudy
Mostly cloudy
 Wind from WSW
Wind: WSW 10 mph , 17 km/h
Temperature: 17°C
Dew Point: 16°C
Humidity: 94%
Barometer: 1008 hPa
Clouds: Mostly cloudy
Visibility: 6 miles , 10 km
Cloud details: Mostly cloudy 457 m
2019/07/18 07:50 EGYH 180750Z 24009KT 9999 BKN015 17/16 Q1008 RMK WHT
EGSS - Stansted Airport, United Kingdom
Distance from station: SE 11mi, 18km
Updated: 18/07/2019 09:20
Drizzle, Overcast
Drizzle, Overcast
 Wind from SW
Wind: SW 9 mph , 15 km/h
Temperature: 16°C
Dew Point: 16°C
Humidity: 100%
Barometer: 1009 hPa
Summary: Drizzle
Clouds: Overcast
Visibility: 1 mile , 2 km
Cloud details: Mostly cloudy 91 m
Overcast 244 m
2019/07/18 08:20 EGSS 180820Z AUTO 23008KT 1900 DZ BKN003 OVC008 16/16 Q1009
 
EGGW - Luton Airport, United Kingdom
Distance from station: WSW 19mi, 31km
Updated: 18/07/2019 09:20
Overcast
Overcast
 Wind from WSW
Wind: WSW 7 mph , 11 km/h
Temperature: 17°C
Dew Point: 16°C
Humidity: 94%
Barometer: 1009 hPa
Clouds: Overcast
Visibility: 6 miles , 10 km
Cloud details: Mostly cloudy 152 m
Overcast 274 m
2019/07/18 08:20 EGGW 180820Z AUTO 24006KT 9999 BKN005 OVC009 17/16 Q1009
EGLL - London/Heathrow, United Kingdom
Distance from station: SSW 41mi, 66km
Updated: 18/07/2019 09:20
Light rain, Drizzle, Overcast
Light rain, Drizzle, Overcast
 Wind from SW
Wind: SW 9 mph , 15 km/h
Temperature: 17°C
Dew Point: 17°C
Humidity: 100%
Barometer: 1009 hPa
Summary: Light rain, Drizzle
Clouds: Overcast
Visibility: 2 miles , 3 km
Cloud details: Partly cloudy 122 m
Mostly cloudy 244 m
Overcast 549 m
2019/07/18 08:20 EGLL 180820Z 22008KT 190V250 3300 -RADZ SCT004TCU BKN008 OVC018 17/17 Q1009 RERA REDZ
 
EGKK - London/Gatwick A, United Kingdom
Distance from station: S 60mi, 97km
Updated: 18/07/2019 09:20
Light rain, Drizzle, Mist, Overcast
Light rain, Drizzle, Mist, Overcast
 Wind from SSW
Wind: SSW 7 mph , 11 km/h
Temperature: 17°C
Dew Point: 17°C
Humidity: 100%
Barometer: 1009 hPa
Summary: Light rain, Drizzle, Mist
Clouds: Overcast
Visibility: 3 miles , 5 km
Cloud details: Mostly cloudy 152 m
Overcast 274 m
2019/07/18 08:20 EGKK 180820Z 21006KT 5000 -RADZ BR BKN005 OVC009 17/17 Q1009
EGUY - Wyton Raf, United Kingdom
Distance from station: SW 11mi, 18km
Updated: 04/10/2015 09:50
NOT Current
Haze, Clear
Haze, Clear
 Wind from SSE
Wind: SSE 2 mph , 4 km/h
Temperature: 11°C
Dew Point: 7°C
Humidity: 77%
Barometer: 1014 hPa
Summary: Haze
Clouds: Clear
Visibility: 4 miles , 6 km
2015/10/04 08:50 EGUY 040850Z 15002KT 6000 HZ SKC 11/07 Q1014 WHT

Met Office METAR data link, decoding METAR data code.